Time;durP1;ratioP1;P1;durP2;ratioP2;P2;SDS_P1;SDS_P2;PMS_P1;PMS_P2;Temp;Humidity;BMP_temperature;BMP_pressure;BME280_temperature;BME280_humidity;BME280_pressure;Samples;Min_cycle;Max_cycle;Signal;HPM_P1;HPM_P2
2021/01/28 00:00:28;;;;;;;22.55;12.07;;;3.70;99.90;;;;;;5032420;28;20029;-73
2021/01/28 00:02:54;;;;;;;24.73;11.98;;;3.70;99.90;;;;;;5032467;28;20037;-73
2021/01/28 00:05:20;;;;;;;19.50;11.52;;;3.70;99.90;;;;;;5032682;28;20105;-73
2021/01/28 00:07:46;;;;;;;23.30;12.60;;;3.70;99.90;;;;;;5032781;28;20072;-73
2021/01/28 00:10:13;;;;;;;21.77;12.13;;;3.60;99.90;;;;;;5032935;28;20025;-73
2021/01/28 00:12:39;;;;;;;20.38;11.38;;;3.60;99.90;;;;;;5031832;28;20079;-73
2021/01/28 00:15:06;;;;;;;21.88;11.75;;;3.50;99.90;;;;;;5031890;28;20458;-73
2021/01/28 00:17:32;;;;;;;22.70;11.75;;;3.50;99.90;;;;;;5031908;28;20037;-75
2021/01/28 00:19:58;;;;;;;25.38;11.15;;;3.50;99.90;;;;;;5036030;28;20504;-73
2021/01/28 00:22:24;;;;;;;20.58;11.27;;;3.50;99.90;;;;;;5031402;28;20035;-73
2021/01/28 00:24:49;;;;;;;17.92;11.25;;;3.50;99.90;;;;;;5032567;28;20064;-72
2021/01/28 00:27:15;;;;;;;19.50;11.35;;;3.50;99.90;;;;;;5031901;28;20021;-73
2021/01/28 00:29:40;;;;;;;18.48;11.07;;;3.50;99.90;;;;;;5032338;28;20022;-74
2021/01/28 00:32:06;;;;;;;21.27;11.88;;;3.50;99.90;;;;;;5032634;28;20029;-74
2021/01/28 00:34:32;;;;;;;22.60;12.02;;;3.50;99.90;;;;;;5031605;28;20104;-73
2021/01/28 00:36:58;;;;;;;21.75;12.00;;;3.50;99.90;;;;;;5031564;28;20478;-74
2021/01/28 00:39:24;;;;;;;20.42;11.38;;;3.50;99.90;;;;;;5031210;28;20030;-74
2021/01/28 00:41:50;;;;;;;18.85;10.90;;;3.50;99.90;;;;;;5031514;28;20026;-73
2021/01/28 00:44:15;;;;;;;19.25;11.52;;;3.50;99.90;;;;;;5014301;28;20029;-76
2021/01/28 00:46:41;;;;;;;20.40;11.35;;;3.50;99.90;;;;;;5031983;28;20021;-73
2021/01/28 00:49:07;;;;;;;17.00;10.32;;;3.60;99.90;;;;;;5014373;28;20051;-73
2021/01/28 00:51:33;;;;;;;17.25;11.15;;;3.50;99.90;;;;;;5031159;28;20030;-73
2021/01/28 00:53:59;;;;;;;18.35;9.90;;;3.50;99.90;;;;;;5031080;28;20054;-74
2021/01/28 00:56:24;;;;;;;15.50;10.02;;;3.40;99.90;;;;;;5031581;28;20104;-73
2021/01/28 00:58:50;;;;;;;17.42;9.68;;;3.40;99.90;;;;;;5030280;28;20117;-74
2021/01/28 01:01:16;;;;;;;18.67;10.70;;;3.30;99.90;;;;;;5030839;28;20018;-73
2021/01/28 01:03:42;;;;;;;15.02;9.95;;;3.30;99.90;;;;;;5030860;28;20497;-74
2021/01/28 01:06:08;;;;;;;19.85;9.82;;;3.30;99.90;;;;;;5031694;28;20056;-73
2021/01/28 01:08:34;;;;;;;15.63;10.35;;;3.30;99.90;;;;;;5031698;28;20033;-74
2021/01/28 01:11:01;;;;;;;15.43;9.65;;;3.30;99.90;;;;;;5031268;28;20072;-73
2021/01/28 01:13:30;;;;;;;23.88;9.70;;;3.30;99.90;;;;;;5031492;28;20028;-73
2021/01/28 01:15:57;;;;;;;16.42;10.75;;;3.30;99.90;;;;;;5031080;28;20552;-73
2021/01/28 01:18:26;;;;;;;15.93;9.70;;;3.20;99.90;;;;;;5031888;28;20104;-74
2021/01/28 01:20:52;;;;;;;18.10;10.80;;;3.20;99.90;;;;;;5030907;28;20025;-73
2021/01/28 01:23:18;;;;;;;24.38;13.63;;;3.30;99.90;;;;;;5030738;28;20032;-74
2021/01/28 01:25:44;;;;;;;28.38;11.95;;;3.30;99.90;;;;;;5031266;28;20025;-74
2021/01/28 01:28:09;;;;;;;18.05;10.02;;;3.30;99.90;;;;;;5030717;28;20033;-74
2021/01/28 01:30:35;;;;;;;16.38;9.95;;;3.30;99.90;;;;;;5030772;28;20026;-73
2021/01/28 01:33:01;;;;;;;17.45;10.30;;;3.30;99.90;;;;;;5030021;28;20017;-73
2021/01/28 01:35:27;;;;;;;15.90;9.88;;;3.20;99.90;;;;;;5031076;28;20018;-73
2021/01/28 01:37:55;;;;;;;15.65;10.18;;;3.20;99.90;;;;;;5031281;28;20038;-73
2021/01/28 01:40:25;;;;;;;17.25;10.02;;;3.20;99.90;;;;;;5031246;28;20120;-73
2021/01/28 01:42:52;;;;;;;21.73;12.73;;;3.20;99.90;;;;;;5030596;28;20467;-73
2021/01/28 01:45:27;;;;;;;20.75;11.68;;;3.20;99.90;;;;;;5030709;28;20033;-74
2021/01/28 01:47:58;;;;;;;20.05;11.40;;;3.10;99.90;;;;;;5031542;28;20034;-74
2021/01/28 01:51:00;;;;;;;21.35;9.77;;;3.10;99.90;;;;;;5030782;28;20025;-76
2021/01/28 01:53:28;;;;;;;17.10;9.88;;;3.10;99.90;;;;;;5030808;28;20041;-74
2021/01/28 01:55:58;;;;;;;20.42;9.77;;;3.10;99.90;;;;;;5030723;28;20053;-73
2021/01/28 01:58:42;;;;;;;19.50;9.73;;;3.10;99.90;;;;;;5012438;28;20468;-73
2021/01/28 02:01:08;;;;;;;14.45;9.38;;;3.00;99.90;;;;;;5018136;28;20025;-75
2021/01/28 02:03:36;;;;;;;17.35;10.25;;;3.00;99.90;;;;;;5031336;28;20040;-73
2021/01/28 02:06:17;;;;;;;18.85;10.30;;;2.90;99.90;;;;;;5030665;28;20013;-76
2021/01/28 02:08:47;;;;;;;18.10;10.40;;;2.90;99.90;;;;;;5030792;28;20029;-73
2021/01/28 02:11:12;;;;;;;17.30;10.90;;;2.90;99.90;;;;;;5030442;28;20028;-73
2021/01/28 02:13:39;;;;;;;16.33;10.40;;;2.90;99.90;;;;;;5031363;28;20108;-73
2021/01/28 02:16:05;;;;;;;21.25;11.30;;;3.00;99.90;;;;;;5029963;28;20014;-73
2021/01/28 02:18:31;;;;;;;15.55;10.75;;;3.00;99.90;;;;;;5030193;28;20025;-73
2021/01/28 02:21:09;;;;;;;15.68;10.48;;;2.90;99.90;;;;;;5030082;28;20492;-74
2021/01/28 02:23:40;;;;;;;19.15;9.90;;;2.90;99.90;;;;;;5030571;28;20029;-73
2021/01/28 02:26:07;;;;;;;20.85;11.02;;;2.90;99.90;;;;;;5026881;28;20098;-76
2021/01/28 02:28:34;;;;;;;18.05;10.55;;;2.90;99.90;;;;;;5030478;28;20359;-73
2021/01/28 02:31:01;;;;;;;19.45;11.35;;;3.00;99.90;;;;;;5030484;28;20133;-74
2021/01/28 02:33:52;;;;;;;15.75;10.02;;;3.00;99.90;;;;;;5030421;28;20105;-74
2021/01/28 02:36:17;;;;;;;16.40;9.82;;;3.10;99.90;;;;;;5029802;28;20026;-73
2021/01/28 02:38:43;;;;;;;16.08;10.77;;;3.10;99.90;;;;;;5029420;28;20360;-73
2021/01/28 02:41:11;;;;;;;17.65;10.65;;;3.10;99.90;;;;;;5030246;28;20064;-74
2021/01/28 02:43:37;;;;;;;16.63;10.38;;;3.10;99.90;;;;;;5030056;28;20112;-73
2021/01/28 02:46:10;;;;;;;17.52;10.80;;;3.00;99.90;;;;;;5034006;28;20029;-73
2021/01/28 02:48:37;;;;;;;20.77;11.65;;;3.00;99.90;;;;;;5034294;28;20022;-74
2021/01/28 02:51:09;;;;;;;20.38;11.23;;;2.90;99.90;;;;;;5034564;28;20366;-73
2021/01/28 02:53:39;;;;;;;18.05;10.75;;;2.90;99.90;;;;;;5034041;28;20454;-75
2021/01/28 02:56:05;;;;;;;19.20;11.10;;;2.90;99.90;;;;;;5033718;28;20359;-74
2021/01/28 02:58:31;;;;;;;18.27;10.23;;;2.90;99.90;;;;;;5033886;28;20030;-73
2021/01/28 03:00:57;;;;;;;17.83;11.10;;;2.90;99.90;;;;;;5033425;28;20025;-75
2021/01/28 03:03:23;;;;;;;16.73;10.55;;;2.80;99.90;;;;;;5033410;28;20081;-76
2021/01/28 03:05:49;;;;;;;17.27;10.75;;;2.80;99.90;;;;;;5033337;28;20029;-75
2021/01/28 03:08:17;;;;;;;17.98;10.52;;;2.80;99.90;;;;;;5033369;28;20067;-76
2021/01/28 03:10:43;;;;;;;21.52;10.43;;;2.70;99.90;;;;;;5033029;28;20378;-75
2021/01/28 03:13:10;;;;;;;19.85;10.95;;;2.70;99.90;;;;;;5033666;28;20107;-75
2021/01/28 03:15:36;;;;;;;18.40;10.85;;;2.70;99.90;;;;;;5033298;28;20030;-74
2021/01/28 03:18:03;;;;;;;16.50;10.60;;;2.80;99.90;;;;;;5033325;28;20052;-75
2021/01/28 03:20:28;;;;;;;16.40;10.65;;;2.80;99.90;;;;;;5033369;28;20032;-75
2021/01/28 03:22:57;;;;;;;17.23;11.23;;;2.80;99.90;;;;;;5033377;28;20018;-75
2021/01/28 03:25:23;;;;;;;15.05;10.63;;;2.80;99.90;;;;;;5014814;28;20103;-74
2021/01/28 03:27:49;;;;;;;18.33;10.57;;;2.90;99.90;;;;;;5033300;28;20028;-75
2021/01/28 03:30:24;;;;;;;17.15;11.23;;;2.90;99.90;;;;;;5033256;28;20462;-75
2021/01/28 03:32:50;;;;;;;16.73;10.52;;;3.00;99.90;;;;;;5023185;28;20472;-73
2021/01/28 03:35:17;;;;;;;25.30;10.63;;;3.00;99.90;;;;;;5053064;28;20358;-74
2021/01/28 03:37:43;;;;;;;17.15;10.30;;;3.00;99.90;;;;;;5050049;28;20056;-74
2021/01/28 03:40:09;;;;;;;15.25;10.20;;;3.00;99.90;;;;;;5041568;28;20505;-73
2021/01/28 03:42:35;;;;;;;17.27;10.68;;;2.90;99.90;;;;;;5053135;28;20027;-75
2021/01/28 03:45:01;;;;;;;19.80;10.63;;;2.90;99.90;;;;;;5052783;28;21051;-75
2021/01/28 03:47:27;;;;;;;24.45;10.32;;;2.90;99.90;;;;;;5038143;28;20029;-74
2021/01/28 03:49:52;;;;;;;15.18;10.23;;;2.90;99.90;;;;;;5051981;28;20100;-75
2021/01/28 03:52:18;;;;;;;17.85;11.15;;;2.90;99.90;;;;;;5038144;28;20099;-75
2021/01/28 03:54:45;;;;;;;14.68;9.30;;;2.90;99.90;;;;;;5053473;28;20056;-73
2021/01/28 03:57:10;;;;;;;15.13;8.93;;;2.90;99.90;;;;;;5052452;28;20024;-74
2021/01/28 03:59:36;;;;;;;15.65;9.77;;;2.80;99.90;;;;;;5052174;28;20025;-72
2021/01/28 04:02:02;;;;;;;16.90;10.40;;;2.80;99.90;;;;;;5053464;28;20365;-73
2021/01/28 04:04:27;;;;;;;14.82;9.85;;;2.70;99.90;;;;;;5052589;28;20025;-72
2021/01/28 04:06:53;;;;;;;17.65;8.85;;;2.80;99.90;;;;;;5052349;28;20032;-72
2021/01/28 04:09:19;;;;;;;15.27;9.50;;;2.80;99.90;;;;;;5034750;28;20155;-72
2021/01/28 04:11:45;;;;;;;28.33;9.63;;;2.80;99.90;;;;;;5052204;28;20021;-72
2021/01/28 04:14:10;;;;;;;14.02;8.95;;;2.90;99.90;;;;;;5051499;28;20473;-72
2021/01/28 04:16:36;;;;;;;17.08;9.40;;;2.90;99.90;;;;;;5052452;28;20032;-72
2021/01/28 04:19:02;;;;;;;15.55;10.02;;;2.90;99.90;;;;;;5039185;28;20488;-72
2021/01/28 04:21:27;;;;;;;17.95;9.80;;;2.90;99.90;;;;;;5037534;28;20013;-73
2021/01/28 04:23:53;;;;;;;16.77;9.15;;;2.90;99.90;;;;;;5041481;28;20036;-73
2021/01/28 04:26:19;;;;;;;21.45;9.80;;;2.90;99.90;;;;;;5049029;28;20037;-72
2021/01/28 04:28:44;;;;;;;16.38;8.95;;;2.90;99.90;;;;;;5042106;28;20037;-73
2021/01/28 04:31:10;;;;;;;15.02;9.05;;;2.90;99.90;;;;;;5044368;28;20100;-72
2021/01/28 04:33:36;;;;;;;15.32;9.35;;;2.90;99.90;;;;;;5027250;28;20017;-72
2021/01/28 04:36:02;;;;;;;18.40;9.50;;;3.00;99.90;;;;;;5037468;28;20051;-76
2021/01/28 04:38:28;;;;;;;13.88;9.63;;;3.00;99.90;;;;;;5031373;28;21137;-73
2021/01/28 04:41:06;;;;;;;14.80;9.10;;;3.10;99.90;;;;;;5042223;28;20107;-76
2021/01/28 04:43:33;;;;;;;13.77;9.35;;;3.20;99.90;;;;;;5051861;28;20059;-73
2021/01/28 04:46:03;;;;;;;20.55;9.40;;;3.20;99.90;;;;;;5051848;28;20129;-78
2021/01/28 04:48:30;;;;;;;23.85;9.02;;;3.20;99.90;;;;;;5049803;28;20087;-76
2021/01/28 04:50:57;;;;;;;15.55;9.35;;;3.20;99.90;;;;;;5032370;28;20436;-76
2021/01/28 04:53:31;;;;;;;17.05;10.57;;;3.10;99.90;;;;;;5031975;28;20052;-76
2021/01/28 04:56:00;;;;;;;15.02;10.05;;;3.00;99.90;;;;;;5051898;28;20044;-75
2021/01/28 04:58:26;;;;;;;14.40;9.30;;;2.90;99.90;;;;;;5051479;28;20037;-76
2021/01/28 05:00:52;;;;;;;13.82;9.40;;;2.90;99.90;;;;;;5051953;28;20170;-76
2021/01/28 05:03:20;;;;;;;13.18;9.00;;;2.90;99.90;;;;;;5051704;28;20100;-76
2021/01/28 05:05:50;;;;;;;14.10;8.88;;;2.80;99.90;;;;;;5051759;28;20188;-75
2021/01/28 05:08:16;;;;;;;12.75;8.80;;;2.80;99.90;;;;;;5050438;28;20096;-74
2021/01/28 05:10:47;;;;;;;12.48;7.85;;;2.80;99.90;;;;;;5036978;28;20612;-76
2021/01/28 05:13:36;;;;;;;11.63;8.13;;;2.80;99.90;;;;;;5041759;28;20026;-74
2021/01/28 05:16:35;;;;;;;12.85;8.52;;;2.80;99.90;;;;;;5035827;28;20067;-76
2021/01/28 05:19:06;;;;;;;15.05;8.65;;;2.80;99.90;;;;;;5051115;28;20029;-75
2021/01/28 05:21:45;;;;;;;17.70;8.73;;;2.80;99.90;;;;;;5033689;28;20480;-75
2021/01/28 05:24:51;;;;;;;14.20;8.65;;;2.70;99.90;;;;;;5051179;28;20381;-76
2021/01/28 05:27:31;;;;;;;14.18;8.73;;;2.70;99.90;;;;;;5050751;28;20142;-76
2021/01/28 05:30:00;;;;;;;16.38;9.07;;;2.60;99.90;;;;;;5023890;28;20038;-76
2021/01/28 05:32:36;;;;;;;18.05;9.20;;;2.60;99.90;;;;;;5045058;28;20013;-76
2021/01/28 05:35:30;;;;;;;14.32;8.43;;;2.70;99.90;;;;;;5032738;28;20112;-75
2021/01/28 05:38:13;;;;;;;12.48;7.97;;;2.60;99.90;;;;;;5036476;28;20035;-75
2021/01/28 05:40:39;;;;;;;13.77;8.43;;;2.60;99.90;;;;;;5051014;28;20021;-77
2021/01/28 05:43:44;;;;;;;11.27;7.95;;;2.50;99.90;;;;;;5051083;28;20033;-76
2021/01/28 05:46:15;;;;;;;13.65;8.95;;;2.50;99.90;;;;;;5032717;28;20456;-77
2021/01/28 05:48:42;;;;;;;13.73;7.95;;;2.50;99.90;;;;;;5050664;28;20103;-77
2021/01/28 05:51:13;;;;;;;17.90;8.48;;;2.50;99.90;;;;;;5040665;28;20444;-76
2021/01/28 05:53:39;;;;;;;20.30;8.63;;;2.50;99.90;;;;;;5037108;28;20091;-76
2021/01/28 05:56:14;;;;;;;18.10;8.93;;;2.60;99.90;;;;;;5042230;28;20101;-75
2021/01/28 05:58:49;;;;;;;17.88;9.73;;;2.60;99.90;;;;;;5032974;28;20045;-77
2021/01/28 06:01:34;;;;;;;13.38;8.15;;;2.60;99.90;;;;;;5050848;28;20021;-77
2021/01/28 06:04:05;;;;;;;13.00;8.02;;;2.60;99.90;;;;;;5050763;28;20032;-75
2021/01/28 06:06:49;;;;;;;16.20;8.55;;;2.60;99.90;;;;;;5051180;28;20025;-76
2021/01/28 06:09:36;;;;;;;15.98;7.90;;;2.60;99.90;;;;;;5050831;28;20469;-77
2021/01/28 06:12:29;;;;;;;14.43;8.45;;;2.60;99.90;;;;;;5044675;28;20481;-75
2021/01/28 06:15:00;;;;;;;12.77;8.73;;;2.70;99.90;;;;;;5030571;28;20072;-76
2021/01/28 06:18:03;;;;;;;18.58;9.65;;;2.80;99.90;;;;;;5031015;28;20032;-76
2021/01/28 06:20:37;;;;;;;17.23;9.00;;;2.90;99.90;;;;;;5033296;28;20068;-74
2021/01/28 06:23:27;;;;;;;17.92;9.45;;;3.00;99.90;;;;;;5034883;28;20041;-76
2021/01/28 06:25:52;;;;;;;23.70;9.25;;;3.10;99.90;;;;;;5027028;28;20101;-77
2021/01/28 06:28:36;;;;;;;16.98;10.00;;;3.20;99.90;;;;;;5034420;28;20096;-75
2021/01/28 06:31:41;;;;;;;21.13;9.73;;;3.20;99.90;;;;;;5031782;28;20028;-74
2021/01/28 06:34:17;;;;;;;22.40;10.75;;;3.30;99.90;;;;;;5034109;28;20022;-76
2021/01/28 06:36:56;;;;;;;18.70;11.15;;;3.30;99.90;;;;;;5034505;28;20462;-74
2021/01/28 06:39:32;;;;;;;22.20;9.73;;;3.30;99.90;;;;;;5030672;28;20048;-75
2021/01/28 06:42:21;;;;;;;18.92;9.98;;;3.30;99.90;;;;;;5054532;28;20021;-77
2021/01/28 06:45:10;;;;;;;22.52;9.60;;;3.10;99.90;;;;;;5053907;28;20032;-78
2021/01/28 06:47:46;;;;;;;24.58;10.45;;;3.10;99.90;;;;;;5032315;28;20547;-77
2021/01/28 06:50:45;;;;;;;20.02;9.82;;;3.00;99.90;;;;;;5052810;28;20645;-75
2021/01/28 06:53:22;;;;;;;18.92;9.52;;;3.00;99.90;;;;;;4977471;28;20125;-74
2021/01/28 06:56:13;;;;;;;22.42;8.93;;;2.90;99.90;;;;;;5046967;28;20029;-75
2021/01/28 06:58:38;;;;;;;16.95;9.27;;;2.90;99.90;;;;;;5048328;28;20025;-75
2021/01/28 07:01:22;;;;;;;24.00;10.15;;;3.00;99.90;;;;;;5048977;28;20021;-75
2021/01/28 07:04:16;;;;;;;25.90;9.88;;;3.00;99.90;;;;;;5049857;28;20061;-76
2021/01/28 07:07:06;;;;;;;24.45;11.68;;;3.10;99.90;;;;;;5041968;28;20056;-78
2021/01/28 07:09:41;;;;;;;27.02;10.57;;;3.20;99.90;;;;;;5032231;28;20045;-73
2021/01/28 07:12:10;;;;;;;28.70;10.27;;;3.30;99.90;;;;;;5034152;28;20040;-78
2021/01/28 07:14:37;;;;;;;19.70;10.82;;;3.40;99.90;;;;;;5033167;28;20013;-77
2021/01/28 07:17:08;;;;;;;25.65;10.55;;;3.50;99.90;;;;;;5033632;28;20017;-77
2021/01/28 07:19:54;;;;;;;28.40;9.68;;;3.80;99.90;;;;;;5029791;28;20100;-78
2021/01/28 07:22:29;;;;;;;25.30;10.52;;;3.90;99.90;;;;;;5033097;28;20493;-78
2021/01/28 07:24:56;;;;;;;41.38;11.32;;;4.00;99.90;;;;;;5033179;28;20025;-77
2021/01/28 07:27:42;;;;;;;20.35;10.02;;;4.00;99.90;;;;;;5033738;28;20025;-77
2021/01/28 07:30:28;;;;;;;26.75;10.98;;;4.20;99.90;;;;;;5032869;28;20470;-74
2021/01/28 07:32:56;;;;;;;19.20;10.07;;;4.40;99.90;;;;;;5033011;28;20026;-75
2021/01/28 07:35:24;;;;;;;24.77;10.48;;;4.80;99.90;;;;;;5033496;28;20400;-75
2021/01/28 07:37:52;;;;;;;22.77;10.82;;;5.20;99.90;;;;;;5032686;28;20057;-75
2021/01/28 07:40:54;;;;;;;20.30;10.68;;;5.60;99.90;;;;;;5037527;28;20035;-74
2021/01/28 07:43:26;;;;;;;29.92;11.02;;;5.90;99.90;;;;;;5027215;28;20029;-76
2021/01/28 07:46:32;;;;;;;26.83;11.57;;;6.20;99.90;;;;;;5052379;28;20060;-75
2021/01/28 07:49:17;;;;;;;34.30;12.73;;;6.60;99.90;;;;;;5052904;28;20021;-75
2021/01/28 07:51:58;;;;;;;24.25;11.50;;;6.90;99.90;;;;;;5053367;28;20500;-76
2021/01/28 07:54:24;;;;;;;22.77;11.98;;;7.30;99.90;;;;;;5052482;28;20049;-75
2021/01/28 07:56:57;;;;;;;43.65;12.48;;;7.50;99.90;;;;;;5051100;28;20143;-74
2021/01/28 07:59:22;;;;;;;25.15;10.98;;;7.90;99.90;;;;;;5044395;28;20040;-74
2021/01/28 08:01:52;;;;;;;23.38;11.57;;;8.20;99.90;;;;;;5044590;28;20070;-74
2021/01/28 08:04:34;;;;;;;22.67;11.98;;;8.50;99.90;;;;;;5036676;28;20048;-75
2021/01/28 08:07:05;;;;;;;33.55;13.63;;;8.80;99.90;;;;;;5046184;28;20082;-74
2021/01/28 08:09:30;;;;;;;25.77;11.80;;;9.10;99.90;;;;;;5033639;28;20025;-75
2021/01/28 08:11:57;;;;;;;26.77;12.48;;;9.20;99.90;;;;;;5032939;28;20547;-74
2021/01/28 08:14:29;;;;;;;32.72;11.18;;;9.40;99.90;;;;;;5050405;28;20017;-75
2021/01/28 08:16:55;;;;;;;;;;;9.90;99.90;;;;;;5052471;28;20040;-74
2021/01/28 08:19:24;;;;;;;19.27;10.60;;;10.50;99.90;;;;;;5025704;28;19923;-75
2021/01/28 08:22:12;;;;;;;26.70;11.00;;;11.00;99.90;;;;;;5032952;28;20032;-75
2021/01/28 08:24:39;;;;;;;20.88;10.00;;;11.30;99.90;;;;;;5033114;28;20022;-76
2021/01/28 08:27:30;;;;;;;17.60;10.18;;;11.40;99.90;;;;;;5015317;28;20470;-76
2021/01/28 08:30:04;;;;;;;16.27;8.82;;;11.20;99.90;;;;;;5032809;28;20026;-76
2021/01/28 08:32:31;;;;;;;13.75;8.95;;;11.10;99.90;;;;;;5047630;28;20032;-76
2021/01/28 08:35:05;;;;;;;15.23;9.63;;;11.00;99.90;;;;;;5046542;28;20025;-75
2021/01/28 08:37:32;;;;;;;13.40;9.32;;;11.20;99.90;;;;;;5046260;28;20049;-73
2021/01/28 08:39:57;;;;;;;16.75;9.95;;;11.40;99.90;;;;;;5032084;28;20393;-73
2021/01/28 08:42:27;;;;;;;22.00;10.07;;;11.70;99.90;;;;;;5043535;28;20021;-73
2021/01/28 08:45:21;;;;;;;13.93;8.88;;;12.00;99.90;;;;;;5047304;28;20119;-73
2021/01/28 08:47:59;;;;;;;18.48;11.88;;;12.40;99.90;;;;;;5044390;28;20601;-73
2021/01/28 08:50:27;;;;;;;13.82;9.65;;;12.40;99.90;;;;;;5042131;28;20028;-74
2021/01/28 08:52:59;;;;;;;17.95;9.07;;;12.40;99.90;;;;;;5042904;28;20013;-74
2021/01/28 08:55:29;;;;;;;21.58;10.95;;;12.30;99.90;;;;;;5030959;28;20043;-75
2021/01/28 08:58:15;;;;;;;23.25;10.77;;;12.30;99.90;;;;;;5030746;28;20044;-76
2021/01/28 09:00:47;;;;;;;23.00;11.25;;;11.90;99.90;;;;;;5036449;28;20063;-75
2021/01/28 09:03:18;;;;;;;24.77;11.38;;;11.60;99.90;;;;;;5046979;28;20017;-73
2021/01/28 09:05:44;;;;;;;22.27;11.90;;;11.70;99.90;;;;;;5047943;28;20024;-73
2021/01/28 09:08:24;;;;;;;18.50;10.73;;;12.20;99.90;;;;;;5047957;28;20517;-72
2021/01/28 09:10:50;;;;;;;24.70;11.07;;;12.50;99.90;;;;;;5044607;28;20021;-73
2021/01/28 09:13:26;;;;;;;19.98;10.80;;;12.20;99.90;;;;;;5047403;28;20493;-73
2021/01/28 09:16:14;;;;;;;26.58;12.93;;;11.90;99.90;;;;;;5049134;28;20025;-72
2021/01/28 09:18:43;;;;;;;20.73;13.13;;;11.40;99.90;;;;;;5047820;28;20113;-72
2021/01/28 09:21:15;;;;;;;26.67;15.38;;;10.60;99.90;;;;;;5049967;28;20492;-73
2021/01/28 09:23:57;;;;;;;30.73;19.48;;;10.30;99.90;;;;;;5049497;28;20062;-72
2021/01/28 09:26:24;;;;;;;;;;;10.30;99.90;;;;;;5032441;28;20489;-72
2021/01/28 09:28:50;;;;;;;17.40;11.73;;;10.50;99.90;;;;;;5047955;28;19908;-72
2021/01/28 09:31:25;;;;;;;20.42;14.02;;;10.80;99.90;;;;;;5048367;28;20020;-73
2021/01/28 09:33:51;;;;;;;28.25;18.20;;;11.60;99.90;;;;;;5047394;28;20032;-72
2021/01/28 09:36:20;;;;;;;19.70;9.45;;;12.50;99.90;;;;;;5050105;28;20028;-73
2021/01/28 09:39:01;;;;;;;16.80;10.38;;;13.40;99.90;;;;;;5044889;28;20033;-73
2021/01/28 09:41:32;;;;;;;16.35;9.15;;;14.10;99.90;;;;;;5038289;28;20029;-73
2021/01/28 09:43:58;;;;;;;20.17;9.52;;;15.00;99.90;;;;;;5033155;28;20021;-73
2021/01/28 09:46:30;;;;;;;15.07;9.75;;;15.80;98.10;;;;;;5031912;28;20025;-73
2021/01/28 09:48:57;;;;;;;;;;;15.70;96.60;;;;;;5044060;28;20029;-75
2021/01/28 09:51:33;;;;;;;20.05;10.52;;;15.40;96.80;;;;;;5046761;28;20387;-72
2021/01/28 09:54:10;;;;;;;15.57;9.05;;;15.40;96.30;;;;;;5040573;28;20045;-73
2021/01/28 09:56:36;;;;;;;13.57;9.10;;;15.50;95.60;;;;;;5014117;28;20017;-74
2021/01/28 09:59:02;;;;;;;17.15;10.10;;;15.60;95.70;;;;;;5037853;28;20040;-76
2021/01/28 10:01:28;;;;;;;23.58;10.30;;;15.60;95.20;;;;;;5046228;28;20432;-75
2021/01/28 10:03:53;;;;;;;18.27;12.43;;;15.40;95.20;;;;;;5043340;28;20036;-75
2021/01/28 10:06:19;;;;;;;14.80;9.73;;;14.90;96.10;;;;;;5042690;28;20033;-74
2021/01/28 10:08:45;;;;;;;15.35;9.73;;;14.40;96.30;;;;;;5031539;28;20386;-76
2021/01/28 10:11:10;;;;;;;15.90;8.82;;;14.00;96.70;;;;;;5031378;28;20091;-74
2021/01/28 10:13:36;;;;;;;11.75;8.20;;;13.60;96.50;;;;;;5032072;28;20025;-76
2021/01/28 10:16:02;;;;;;;14.93;9.85;;;13.50;96.80;;;;;;5031799;28;20524;-75
2021/01/28 10:18:28;;;;;;;11.57;8.60;;;13.80;95.40;;;;;;5039013;28;20085;-73
2021/01/28 10:20:53;;;;;;;13.82;7.78;;;13.50;95.40;;;;;;5031275;28;20037;-73
2021/01/28 10:23:19;;;;;;;17.55;11.30;;;13.60;95.60;;;;;;5031558;28;20010;-73
2021/01/28 10:25:45;;;;;;;12.35;8.20;;;13.60;94.90;;;;;;5031386;28;20108;-73
2021/01/28 10:28:11;;;;;;;10.85;7.75;;;13.30;95.40;;;;;;5031409;28;20052;-73
2021/01/28 10:30:36;;;;;;;15.05;8.85;;;13.00;96.30;;;;;;5031697;28;20036;-74
2021/01/28 10:33:03;;;;;;;14.15;7.93;;;12.80;96.40;;;;;;5030998;28;20096;-73
2021/01/28 10:35:31;;;;;;;13.88;8.50;;;12.40;96.50;;;;;;5031431;28;20079;-73
2021/01/28 10:37:58;;;;;;;12.77;8.90;;;12.20;97.30;;;;;;5031129;28;20116;-74
2021/01/28 10:40:25;;;;;;;13.65;9.45;;;11.80;98.20;;;;;;5029900;28;20014;-73
2021/01/28 10:42:57;;;;;;;15.07;9.70;;;12.10;97.80;;;;;;5030208;28;20021;-73
2021/01/28 10:45:27;;;;;;;13.82;9.38;;;12.50;97.90;;;;;;5029722;28;20016;-74
2021/01/28 10:47:52;;;;;;;15.10;9.30;;;12.60;97.30;;;;;;5030399;28;20096;-73
2021/01/28 10:50:21;;;;;;;13.68;8.85;;;12.40;97.70;;;;;;5030164;28;20017;-73
2021/01/28 10:52:48;;;;;;;14.45;8.52;;;12.10;98.00;;;;;;5031377;28;20105;-75
2021/01/28 10:55:14;;;;;;;14.57;9.30;;;11.90;98.00;;;;;;5023555;28;20040;-74
2021/01/28 10:57:40;;;;;;;17.50;9.15;;;11.80;98.70;;;;;;5046146;28;20029;-75
2021/01/28 11:00:06;;;;;;;23.08;10.23;;;11.80;99.30;;;;;;5048214;28;20048;-74
2021/01/28 11:02:32;;;;;;;16.45;10.18;;;11.60;99.40;;;;;;5041149;28;20017;-73
2021/01/28 11:04:59;;;;;;;14.00;9.25;;;11.50;99.90;;;;;;5046199;28;20044;-74
2021/01/28 11:07:25;;;;;;;14.35;9.57;;;11.10;99.90;;;;;;5051299;28;20052;-73
2021/01/28 11:09:51;;;;;;;15.48;10.45;;;10.90;99.90;;;;;;5052525;28;20466;-73
2021/01/28 11:12:17;;;;;;;16.30;9.95;;;10.70;99.90;;;;;;5051508;28;20052;-73
2021/01/28 11:14:43;;;;;;;19.33;8.88;;;10.70;99.90;;;;;;5052567;28;20377;-73
2021/01/28 11:17:08;;;;;;;12.73;9.20;;;10.40;99.90;;;;;;5049073;28;20029;-74
2021/01/28 11:19:34;;;;;;;13.93;9.68;;;10.30;99.90;;;;;;5051426;28;20037;-75
2021/01/28 11:22:00;;;;;;;17.38;9.38;;;10.20;99.90;;;;;;5051498;28;20017;-74
2021/01/28 11:24:25;;;;;;;14.25;8.82;;;10.10;99.90;;;;;;5051543;28;20029;-73
2021/01/28 11:26:54;;;;;;;12.90;8.45;;;10.00;99.90;;;;;;5052888;28;20046;-74
2021/01/28 11:29:24;;;;;;;12.90;8.40;;;9.90;99.90;;;;;;5050828;28;20025;-73
2021/01/28 11:31:50;;;;;;;15.25;7.80;;;9.80;99.90;;;;;;5052299;28;20017;-73
2021/01/28 11:34:16;;;;;;;12.65;8.32;;;9.90;99.90;;;;;;5051053;28;20021;-74
2021/01/28 11:36:42;;;;;;;13.85;8.23;;;9.80;99.90;;;;;;5053366;28;20381;-73
2021/01/28 11:39:08;;;;;;;15.77;10.48;;;9.90;99.90;;;;;;5050379;28;20485;-73
2021/01/28 11:41:34;;;;;;;22.58;11.70;;;10.00;99.90;;;;;;5051119;28;20045;-73
2021/01/28 11:44:00;;;;;;;23.25;10.02;;;10.00;99.90;;;;;;5051294;28;20478;-75
2021/01/28 11:46:26;;;;;;;14.15;9.10;;;9.80;99.90;;;;;;5050389;28;20100;-73
2021/01/28 11:48:51;;;;;;;16.70;9.63;;;9.60;99.90;;;;;;5051703;28;20060;-73
2021/01/28 11:51:17;;;;;;;18.65;9.70;;;9.50;99.90;;;;;;5050990;28;20028;-73
2021/01/28 11:53:42;;;;;;;16.35;9.20;;;9.50;99.90;;;;;;5033015;28;21070;-74
2021/01/28 11:56:08;;;;;;;13.95;9.70;;;9.40;99.90;;;;;;5051833;28;20017;-75
2021/01/28 11:58:34;;;;;;;19.98;9.05;;;9.30;99.90;;;;;;5052064;28;20128;-73
2021/01/28 12:00:59;;;;;;;17.60;9.80;;;9.20;99.90;;;;;;5048346;28;20017;-76
2021/01/28 12:03:25;;;;;;;14.73;8.88;;;9.20;99.90;;;;;;5046748;28;20030;-75
2021/01/28 12:05:51;;;;;;;13.07;9.23;;;9.10;99.90;;;;;;5050477;28;20036;-75
2021/01/28 12:08:17;;;;;;;19.75;9.93;;;9.10;99.90;;;;;;5041418;28;20491;-75
2021/01/28 12:10:43;;;;;;;17.02;10.00;;;9.10;99.90;;;;;;5049286;28;20056;-73
2021/01/28 12:13:08;;;;;;;22.38;11.85;;;9.10;99.90;;;;;;5048561;28;20029;-73
2021/01/28 12:15:34;;;;;;;22.85;12.20;;;9.10;99.90;;;;;;5037616;28;20034;-73
2021/01/28 12:18:00;;;;;;;17.33;10.77;;;9.10;99.90;;;;;;5040463;28;20026;-73
2021/01/28 12:20:29;;;;;;;15.70;9.73;;;9.10;99.90;;;;;;5033395;28;20060;-75
2021/01/28 12:22:55;;;;;;;20.80;13.50;;;9.00;99.90;;;;;;5050768;28;20048;-75
2021/01/28 12:25:21;;;;;;;16.90;10.38;;;9.00;99.90;;;;;;5051747;28;20515;-72
2021/01/28 12:27:47;;;;;;;17.27;10.52;;;8.90;99.90;;;;;;5047102;28;20469;-73
2021/01/28 12:30:16;;;;;;;15.07;10.00;;;8.90;99.90;;;;;;5049868;28;20021;-75
2021/01/28 12:32:42;;;;;;;14.35;9.48;;;9.00;99.90;;;;;;5034888;28;20132;-75
2021/01/28 12:35:09;;;;;;;13.93;9.10;;;9.00;99.90;;;;;;5051973;28;20029;-75
2021/01/28 12:37:37;;;;;;;16.45;9.93;;;8.90;99.90;;;;;;5051438;28;20553;-75
2021/01/28 12:40:06;;;;;;;17.10;9.40;;;8.90;99.90;;;;;;5049001;28;20100;-76
2021/01/28 12:42:32;;;;;;;16.77;10.25;;;8.90;99.90;;;;;;5048390;28;20024;-75
2021/01/28 12:44:57;;;;;;;19.27;9.65;;;8.90;99.90;;;;;;5050150;28;20032;-75
2021/01/28 12:47:23;;;;;;;13.77;9.38;;;8.90;99.90;;;;;;5032381;28;20013;-75
2021/01/28 12:49:49;;;;;;;16.67;9.88;;;8.80;99.90;;;;;;5048658;28;20470;-73
2021/01/28 12:52:14;;;;;;;17.70;9.20;;;8.90;99.90;;;;;;5043575;28;20017;-75
2021/01/28 12:54:40;;;;;;;15.00;9.40;;;8.90;99.90;;;;;;5047716;28;20048;-73
2021/01/28 12:57:06;;;;;;;18.33;10.45;;;8.90;99.90;;;;;;5051580;28;20556;-75